EDW46Y LSZH-LDSP
Flight info
| Callsign | EDW46Y |
|---|---|
| Flight time | N/A |
| Altitude | 37000 |
| Route | DEGES Z2 XEBIX L607 ELMEM N606 GIRIS DCT NIVAS DCT PEVAL DCT SAL |
| Aircraft | A320/M-SDE3FGHIRWY/LB1 |
Departure
| Time | 2026-05-01 14:54 |
|---|---|
| Airport | Zürich Airport (LSZH) |
Arrival
| Time | N/A |
|---|---|
| Airport | Split Saint Jerome Airport (LDSP) |
| Time | Latitude | Longitude | Altitude | Speed | Heading |
|---|---|---|---|---|---|
| 2026-05-01 14:40 | 47.45410 | 8.56061 | 1397 ft | 0 kts | 186° |
| 2026-05-01 14:47 | 47.45417 | 8.56062 | 1397 ft | 4 kts | 186° |
| 2026-05-01 14:47 | 47.45443 | 8.56067 | 1402 ft | 4 kts | 186° |
| 2026-05-01 14:47 | 47.45465 | 8.56070 | 1404 ft | 4 kts | 186° |
| 2026-05-01 14:48 | 47.45487 | 8.56043 | 1406 ft | 4 kts | 95° |
| 2026-05-01 14:48 | 47.45489 | 8.56017 | 1404 ft | 0 kts | 97° |
| 2026-05-01 14:51 | 47.45489 | 8.56020 | 1401 ft | 2 kts | 97° |
| 2026-05-01 14:51 | 47.45482 | 8.56113 | 1399 ft | 12 kts | 95° |
| 2026-05-01 14:52 | 47.45593 | 8.56428 | 1398 ft | 23 kts | 62° |
| 2026-05-01 14:52 | 47.45582 | 8.56640 | 1400 ft | 23 kts | 97° |
| 2026-05-01 14:52 | 47.45574 | 8.56993 | 1399 ft | 11 kts | 51° |
| 2026-05-01 14:53 | 47.45647 | 8.57009 | 1406 ft | 13 kts | 338° |
| 2026-05-01 14:53 | 47.45666 | 8.56947 | 1399 ft | 10 kts | 271° |
| 2026-05-01 14:53 | 47.45687 | 8.56654 | 1395 ft | 67 kts | 277° |
| 2026-05-01 14:53 | 47.45771 | 8.55497 | 1395 ft | 153 kts | 276° |
| 2026-05-01 14:54 | 47.45894 | 8.53685 | 1795 ft | 185 kts | 276° |
| 2026-05-01 14:54 | 47.46006 | 8.51797 | 2846 ft | 191 kts | 276° |
| 2026-05-01 14:54 | 47.46150 | 8.49766 | 3498 ft | 208 kts | 277° |
| 2026-05-01 14:54 | 47.46201 | 8.48630 | 3702 ft | 219 kts | 267° |
| 2026-05-01 14:55 | 47.45612 | 8.46530 | 4262 ft | 229 kts | 226° |
| 2026-05-01 14:55 | 47.44298 | 8.45153 | 4870 ft | 239 kts | 213° |
| 2026-05-01 14:55 | 47.43121 | 8.43368 | 4950 ft | 246 kts | 245° |
| 2026-05-01 14:55 | 47.42630 | 8.41053 | 5025 ft | 232 kts | 258° |
| 2026-05-01 14:56 | 47.42298 | 8.38725 | 5323 ft | 233 kts | 251° |
| 2026-05-01 14:56 | 47.41404 | 8.36776 | 6254 ft | 233 kts | 215° |
| 2026-05-01 14:56 | 47.39904 | 8.36058 | 7062 ft | 234 kts | 176° |
| 2026-05-01 14:56 | 47.38401 | 8.36880 | 7861 ft | 235 kts | 140° |
| 2026-05-01 14:57 | 47.37470 | 8.38854 | 8689 ft | 239 kts | 107° |
| 2026-05-01 14:57 | 47.38284 | 8.43397 | 10300 ft | 249 kts | 40° |
| 2026-05-01 14:57 | 47.39818 | 8.44689 | 11051 ft | 253 kts | 26° |
| 2026-05-01 14:58 | 47.41308 | 8.46046 | 11809 ft | 254 kts | 43° |
| 2026-05-01 14:58 | 47.42524 | 8.48031 | 12196 ft | 274 kts | 54° |
| 2026-05-01 14:58 | 47.43707 | 8.50396 | 12498 ft | 298 kts | 55° |
| 2026-05-01 14:58 | 47.44933 | 8.53023 | 12767 ft | 321 kts | 63° |
| 2026-05-01 14:59 | 47.45709 | 8.56162 | 13080 ft | 337 kts | 81° |
| 2026-05-01 14:59 | 47.45902 | 8.59683 | 13755 ft | 344 kts | 88° |
| 2026-05-01 14:59 | 47.46020 | 8.63194 | 14478 ft | 347 kts | 88° |
| 2026-05-01 14:59 | 47.46144 | 8.66784 | 15184 ft | 351 kts | 88° |
| 2026-05-01 15:00 | 47.46407 | 8.74070 | 16568 ft | 357 kts | 87° |
| 2026-05-01 15:00 | 47.46544 | 8.77757 | 17236 ft | 361 kts | 87° |
| 2026-05-01 15:00 | 47.46626 | 8.81484 | 17951 ft | 364 kts | 91° |
| 2026-05-01 15:01 | 47.46308 | 8.85170 | 18607 ft | 368 kts | 101° |
| 2026-05-01 15:01 | 47.45763 | 8.88942 | 19170 ft | 373 kts | 101° |
| 2026-05-01 15:01 | 47.45216 | 8.92683 | 19723 ft | 377 kts | 101° |
| 2026-05-01 15:01 | 47.44667 | 8.96485 | 20319 ft | 380 kts | 101° |
| 2026-05-01 15:02 | 47.44119 | 9.00304 | 20901 ft | 384 kts | 101° |
| 2026-05-01 15:02 | 47.43747 | 9.02914 | 21291 ft | 386 kts | 101° |
| 2026-05-01 15:02 | 47.43002 | 9.08115 | 22069 ft | 391 kts | 101° |
| 2026-05-01 15:02 | 47.42440 | 9.12019 | 22646 ft | 394 kts | 101° |
| 2026-05-01 15:03 | 47.41858 | 9.16006 | 23216 ft | 398 kts | 101° |
| 2026-05-01 15:03 | 47.41273 | 9.20004 | 23788 ft | 401 kts | 100° |
| 2026-05-01 15:03 | 47.40690 | 9.24055 | 24262 ft | 404 kts | 100° |
| 2026-05-01 15:03 | 47.40109 | 9.28125 | 24721 ft | 406 kts | 100° |
| 2026-05-01 15:04 | 47.39531 | 9.32215 | 25170 ft | 409 kts | 98° |
| 2026-05-01 15:04 | 47.39356 | 9.36351 | 25576 ft | 408 kts | 83° |
| 2026-05-01 15:04 | 47.39986 | 9.40401 | 25957 ft | 407 kts | 66° |
| 2026-05-01 15:04 | 47.41271 | 9.44122 | 26346 ft | 408 kts | 60° |
| 2026-05-01 15:05 | 47.42650 | 9.47797 | 26746 ft | 411 kts | 60° |
| 2026-05-01 15:05 | 47.44052 | 9.51513 | 27145 ft | 413 kts | 59° |
| 2026-05-01 15:05 | 47.45417 | 9.55281 | 27544 ft | 417 kts | 64° |
| 2026-05-01 15:05 | 47.46395 | 9.59320 | 27948 ft | 421 kts | 74° |
| 2026-05-01 15:06 | 47.46880 | 9.63574 | 28327 ft | 425 kts | 84° |
| 2026-05-01 15:06 | 47.46854 | 9.67967 | 28721 ft | 429 kts | 92° |
| 2026-05-01 15:06 | 47.46603 | 9.72377 | 29104 ft | 431 kts | 92° |
| 2026-05-01 15:06 | 47.46356 | 9.76820 | 29454 ft | 434 kts | 92° |
| 2026-05-01 15:07 | 47.46110 | 9.81276 | 29800 ft | 436 kts | 92° |
| 2026-05-01 15:07 | 47.45865 | 9.85746 | 30136 ft | 438 kts | 92° |
| 2026-05-01 15:07 | 47.45619 | 9.90213 | 30453 ft | 440 kts | 92° |
| 2026-05-01 15:07 | 47.45369 | 9.94732 | 30722 ft | 442 kts | 92° |
| 2026-05-01 15:08 | 47.45111 | 9.99277 | 30983 ft | 444 kts | 92° |
| 2026-05-01 15:08 | 47.44851 | 10.03815 | 31251 ft | 446 kts | 92° |
| 2026-05-01 15:08 | 47.44588 | 10.08384 | 31532 ft | 447 kts | 92° |
| 2026-05-01 15:08 | 47.44320 | 10.12969 | 31796 ft | 448 kts | 92° |
| 2026-05-01 15:09 | 47.44042 | 10.17572 | 32140 ft | 448 kts | 95° |
| 2026-05-01 15:09 | 47.43502 | 10.22142 | 32482 ft | 449 kts | 99° |
| 2026-05-01 15:09 | 47.42899 | 10.26604 | 32825 ft | 448 kts | 99° |
| 2026-05-01 15:09 | 47.42288 | 10.31127 | 33148 ft | 448 kts | 99° |
| 2026-05-01 15:10 | 47.41676 | 10.35647 | 33489 ft | 447 kts | 99° |
| 2026-05-01 15:10 | 47.39554 | 10.44235 | 34180 ft | 452 kts | 118° |
| 2026-05-01 15:10 | 47.37710 | 10.48004 | 34506 ft | 454 kts | 129° |
| 2026-05-01 15:11 | 47.35415 | 10.51214 | 34793 ft | 457 kts | 140° |
| 2026-05-01 15:11 | 47.29906 | 10.56012 | 35326 ft | 459 kts | 150° |
| 2026-05-01 15:11 | 47.27089 | 10.58243 | 35586 ft | 459 kts | 150° |
| 2026-05-01 15:12 | 47.24303 | 10.60447 | 35841 ft | 459 kts | 150° |
| 2026-05-01 15:12 | 47.18660 | 10.64891 | 36384 ft | 459 kts | 150° |
| 2026-05-01 15:12 | 47.15787 | 10.66865 | 36602 ft | 460 kts | 158° |
| 2026-05-01 15:13 | 47.06767 | 10.71825 | 37222 ft | 461 kts | 158° |
| 2026-05-01 15:14 | 47.00784 | 10.75101 | 37265 ft | 461 kts | 158° |
| 2026-05-01 15:14 | 46.91813 | 10.80173 | 37288 ft | 461 kts | 157° |
| 2026-05-01 15:15 | 46.79876 | 10.87095 | 37289 ft | 460 kts | 150° |
| 2026-05-01 15:16 | 46.74736 | 10.92518 | 37292 ft | 454 kts | 132° |
| 2026-05-01 15:16 | 46.70542 | 10.99328 | 37283 ft | 453 kts | 129° |
| 2026-05-01 15:18 | 46.60044 | 11.16447 | 37284 ft | 453 kts | 129° |
| 2026-05-01 15:19 | 46.51622 | 11.30117 | 37212 ft | 454 kts | 129° |
| 2026-05-01 15:19 | 46.45316 | 11.40307 | 37238 ft | 454 kts | 129° |
| 2026-05-01 15:20 | 46.38989 | 11.50506 | 37308 ft | 454 kts | 129° |
| 2026-05-01 15:21 | 46.34753 | 11.57308 | 37295 ft | 454 kts | 129° |
| 2026-05-01 15:21 | 46.30515 | 11.64089 | 37297 ft | 455 kts | 129° |
| 2026-05-01 15:22 | 46.24150 | 11.74258 | 37296 ft | 455 kts | 129° |
| 2026-05-01 15:22 | 46.19911 | 11.81003 | 37308 ft | 456 kts | 129° |
| 2026-05-01 15:23 | 46.15629 | 11.87795 | 37311 ft | 456 kts | 129° |
| 2026-05-01 15:23 | 46.11386 | 11.94510 | 37310 ft | 455 kts | 129° |
| 2026-05-01 15:24 | 46.07104 | 12.01278 | 37349 ft | 456 kts | 128° |
| 2026-05-01 15:24 | 46.02832 | 12.08029 | 37339 ft | 456 kts | 129° |
| 2026-05-01 15:25 | 45.98557 | 12.14747 | 37335 ft | 456 kts | 129° |
| 2026-05-01 15:25 | 45.94247 | 12.21485 | 37334 ft | 456 kts | 129° |
| 2026-05-01 15:26 | 45.89981 | 12.28149 | 37324 ft | 456 kts | 129° |
| 2026-05-01 15:26 | 45.85779 | 12.34975 | 37351 ft | 455 kts | 126° |
| 2026-05-01 15:27 | 45.81710 | 12.41878 | 37337 ft | 454 kts | 126° |
| 2026-05-01 15:28 | 45.75538 | 12.52226 | 37329 ft | 455 kts | 127° |
| 2026-05-01 15:28 | 45.71379 | 12.59076 | 37327 ft | 455 kts | 127° |
| 2026-05-01 15:29 | 45.65177 | 12.69285 | 37344 ft | 454 kts | 127° |
| 2026-05-01 15:30 | 45.56924 | 12.82846 | 37328 ft | 453 kts | 127° |
| 2026-05-01 15:31 | 45.44485 | 13.03129 | 37341 ft | 453 kts | 126° |
| 2026-05-01 15:32 | 45.36166 | 13.16620 | 37332 ft | 453 kts | 126° |
| 2026-05-01 15:34 | 45.23287 | 13.36249 | 37343 ft | 455 kts | 130° |